Fromissard ULM

FR-0371 · Tarn-et-Garonne, Occitanie, 法国

使用的METAR站距离机场43 km。
罗盘
风向 的 风向 270° Fromissard ULM 16/34
风: 12 kt, 4 beaufort

4 kt

11 kt
改变
0 ft 1.000 2.000 3.000 4.000 5.000
Cloud Cloud Cloud Cloud Cloud Cloud Cloud Cloud
OVC 4.700
METAR LFBO 160130Z AUTO 27012KT 9999 OVC047 11/07 Q1022 TEMPO BKN012

METAR Fromissard ULM - FR-0371

Fromissard ULM是,法国中的小机场。 该机场位于纬度44,00406和经度1,22926。 该机场有一条跑道: 16/34. 这个机场没有ICAO代码,我们使用FR-0371作为参考。 机场在Bordeaux FIR中。

该航空气象观测是针对Toulouse-Blagnac Airport在2024年4月16日 03:30, 当地时间进行的。

机场观察

风向为270°,速度为12 kt。

可见度为10 km 或者更多。

有乌云密布在4.700 ft的高度。 破损或更高的上限为4.700 ft。

温度和风寒是11 °C。 露点为7 °C,相对湿度为77%。 海平面上的气压为1022 hPa (QNH)。

发展趋势

  • 暂时的

    可变方向的风很小或没有。 碎云在1.200 ft的高度.

白天

今天,太阳从07:09升起,在20:40降落。 这适用于Fromissard ULM,世界夏令时可能有所不同。 当地时间与世界标准时间之间的时差为+2 小时。 夏令时目前正在进行中。

公司介绍

我们没有关于这个机场的公司信息。

体会

到Vliegles.nl去找飞行课程,跳伞和其他飞行体验。 浏览页面,了解Fromissard ULM附近所有可用的活动。 你也可以使用搜索功能来寻找你所在地附近的特定飞行课程、跳伞或其他飞行体验。

跑道

Id 标题 侧风 逆风 侧风 %
16/34 161°-341° 11 kt 4 kt 95 %

逆风成分最大的方向会被突出显示,并用于横风计算。 这并不一定意味着这个方向在使用。

乌云

4.700 ft OVC 乌云密布
1.200 ft BKN 暂时的 碎云

温度 & 天气

温度 11 °C
露点 7 °C
相对湿度 77%
Kp-index 4 (0-9)

白天

日出
07:09 (3:32)
中午
13:54
日落
20:39

小工具

你想在你的网站上有一个关于Fromissard ULM的当前航空天气(METAR)的小部件吗?

显示HTML代码
报告变更